Strona główna
Zdjęcia satelitarne 10-dni prognozyKlimatMeteorologia morska Cyklony Błyskawica LotniskoFAQ Gazetka O
Pogoda : Europa Afryka Ameryka Północna Ameryka Południowa Azja Australia-Oceania Inny
Języki Kontakt

Asunción, Paragwaj

Aeropuerto Internacional Silvio Pettirossi (Luque)

Szerokość geograficzna: 25-16S, Długość geograficzna: 057-38W, wysokość: 101 m


METAR: SGAS 312200Z 23005KT 9999 FEW033 32/20 Q1010
TAF: SGAS 311700Z 3118/0118 VRB04KT 9999 SCT033 TX33/3119Z TN24/0109Z BECMG 3123/0103 CAVOK

czas: 19:34 (22:34 UTC)

Aktualna obserwacja pogody

Raport powstał 34 minut temu, godzina 22:00 UTC
Wiatr 5 kt od południowy zachód
Temperatura 32°C
Wilgotność 49%
Ciśnienie 1010 hPa
Widzialność 10 km lub więcej
Mało chmury na wysokości 3300 ft

Jednostka miary

Prognoza

Raport powstał 5 godziny i 34 minut temu, godzina 17:00 UTC
Prognoza ważna od 31 godzina 18 UTC do 01 godzina 18 UTC
Wiatr 4 kt z kierunków zmiennych
Widzialność 10 km lub więcej
Rozproszone chmury na wysokości 3300 ft
Stopniowe zmiany
od 31 godzina 23 UTC do 01 godzina 03 UTC
Widzialność 10 km lub więcej
Brak chmur poniżej 1500 m i brak chmur cumulonimbus
Informacje na tej stronie internetowej podlegają klauzuli o wyłączeniu odpowiedzialności
Pogoda : Europa Afryka Ameryka Północna Ameryka Południowa Azja Australia-Oceania Inny
Zdjęcia satelitarne 10-dni prognozyKlimatMeteorologia morska Cyklony Błyskawica LotniskoFAQ Języki Kontakt Gazetka O